createdAt,value
2022-07-25T00:00:16.241Z,16.50
2022-07-25T00:02:19.404Z,15.70
2022-07-25T00:04:23.330Z,16.03
2022-07-25T00:06:26.346Z,16.30
2022-07-25T00:08:29.379Z,16.20
2022-07-25T00:10:32.442Z,16.27
2022-07-25T00:12:35.645Z,17.10
2022-07-25T00:14:39.067Z,15.93
2022-07-25T00:16:43.530Z,16.17
2022-07-25T00:18:47.129Z,16.33
2022-07-25T00:20:50.163Z,16.90
2022-07-25T00:22:53.163Z,16.17
2022-07-25T00:24:56.420Z,16.93
2022-07-25T00:26:59.529Z,15.60
2022-07-25T00:29:02.701Z,16.37
2022-07-25T00:31:05.967Z,15.77
2022-07-25T00:33:10.567Z,16.47
2022-07-25T00:35:13.652Z,20.37
2022-07-25T00:37:16.728Z,16.40
2022-07-25T00:39:20.023Z,17.03
2022-07-25T00:41:23.038Z,15.70
2022-07-25T00:43:26.037Z,17.20
2022-07-25T00:45:29.159Z,16.10
2022-07-25T00:47:32.234Z,17.13
2022-07-25T00:49:36.706Z,16.67
2022-07-25T00:51:39.692Z,16.73
2022-07-25T00:53:42.756Z,15.50
2022-07-25T00:55:46.176Z,16.23
2022-07-25T00:57:49.259Z,17.07
2022-07-25T00:59:52.414Z,16.17
2022-07-25T01:01:55.828Z,16.10
2022-07-25T01:03:58.963Z,16.63
2022-07-25T01:06:03.622Z,15.73
2022-07-25T01:08:07.382Z,17.53
2022-07-25T01:10:12.528Z,18.20
2022-07-25T01:12:15.567Z,16.93
2022-07-25T01:14:18.708Z,17.63
2022-07-25T01:16:21.980Z,17.03
2022-07-25T01:18:25.115Z,18.17
2022-07-25T01:20:30.671Z,16.90
2022-07-25T01:22:33.753Z,16.83
2022-07-25T01:24:36.951Z,15.57
2022-07-25T01:26:40.042Z,17.60
2022-07-25T01:28:43.075Z,17.70
2022-07-25T01:30:46.154Z,17.20
2022-07-25T01:32:49.541Z,16.83
2022-07-25T01:34:52.552Z,16.40
2022-07-25T01:36:56.958Z,17.10
2022-07-25T01:39:00.076Z,16.90
2022-07-25T01:41:03.181Z,16.67
2022-07-25T01:43:06.499Z,16.33
2022-07-25T01:45:10.406Z,16.27
2022-07-25T01:47:13.393Z,16.50
2022-07-25T01:49:16.490Z,17.60
2022-07-25T01:51:20.374Z,17.83
2022-07-25T01:53:24.994Z,16.70
2022-07-25T01:55:29.442Z,16.83
2022-07-25T01:57:33.936Z,16.80
2022-07-25T01:59:40.341Z,16.63
2022-07-25T02:01:44.048Z,18.13
2022-07-25T02:03:47.169Z,17.60
2022-07-25T02:05:50.193Z,17.17
2022-07-25T02:07:53.197Z,17.70
2022-07-25T02:09:57.812Z,17.27
2022-07-25T02:12:00.817Z,17.03
2022-07-25T02:14:04.498Z,17.47
2022-07-25T02:16:07.840Z,16.50
2022-07-25T02:18:11.010Z,17.90
2022-07-25T02:20:13.980Z,16.70
2022-07-25T02:22:17.084Z,17.97
2022-07-25T02:24:20.189Z,18.57
2022-07-25T02:26:24.624Z,21.50
2022-07-25T02:28:28.249Z,17.90
2022-07-25T02:30:31.385Z,18.93
2022-07-25T02:32:34.518Z,17.80
2022-07-25T02:34:37.493Z,16.93
2022-07-25T02:36:40.572Z,17.57
2022-07-25T02:38:43.751Z,18.23
2022-07-25T02:40:46.819Z,18.40
2022-07-25T02:42:51.350Z,17.47
2022-07-25T02:44:54.424Z,17.80
2022-07-25T02:46:57.451Z,17.83
2022-07-25T02:49:01.042Z,18.50
2022-07-25T02:51:04.466Z,17.13
2022-07-25T02:53:07.728Z,17.97
2022-07-25T02:55:11.716Z,18.27
2022-07-25T02:57:14.768Z,18.43
2022-07-25T02:59:19.151Z,17.97
2022-07-25T03:01:22.331Z,18.70
2022-07-25T03:03:25.367Z,19.27
2022-07-25T03:05:28.606Z,17.43
2022-07-25T03:07:32.765Z,18.23
2022-07-25T03:09:35.788Z,19.77
2022-07-25T03:11:38.938Z,18.03
2022-07-25T03:13:42.067Z,19.67
2022-07-25T03:15:46.537Z,18.47
2022-07-25T03:17:49.575Z,19.17
2022-07-25T03:19:52.836Z,17.67
2022-07-25T03:21:55.882Z,19.60
2022-07-25T03:23:58.967Z,20.70
2022-07-25T03:26:02.143Z,19.10
2022-07-25T03:28:05.432Z,19.83
2022-07-25T03:30:10.004Z,18.83
2022-07-25T03:32:14.629Z,19.00
2022-07-25T03:34:17.713Z,18.57
2022-07-25T03:36:20.693Z,18.83
2022-07-25T03:38:24.679Z,18.90
2022-07-25T03:40:28.101Z,18.90
2022-07-25T03:42:35.218Z,18.90
2022-07-25T03:44:39.028Z,19.40
2022-07-25T03:46:42.027Z,22.60
2022-07-25T03:48:46.639Z,19.47
2022-07-25T03:50:49.629Z,19.73
2022-07-25T03:52:52.745Z,19.23
2022-07-25T03:54:55.833Z,19.43
2022-07-25T03:56:58.891Z,18.93
2022-07-25T03:59:01.955Z,18.63
2022-07-25T04:01:05.030Z,19.53
2022-07-25T04:03:13.736Z,18.93
2022-07-25T04:05:18.184Z,19.40
2022-07-25T04:07:21.227Z,19.97
2022-07-25T04:09:24.492Z,17.67
2022-07-25T04:11:28.112Z,18.27
2022-07-25T04:13:31.186Z,17.97
2022-07-25T04:15:34.211Z,19.53
2022-07-25T04:17:39.673Z,17.97
2022-07-25T04:19:42.856Z,19.37
2022-07-25T04:21:48.388Z,19.03
2022-07-25T04:23:51.955Z,19.70
2022-07-25T04:25:54.956Z,19.07
2022-07-25T04:27:58.011Z,20.17
2022-07-25T04:30:01.239Z,19.57
2022-07-25T04:32:04.736Z,20.20
2022-07-25T04:34:08.417Z,19.93
2022-07-25T04:36:11.972Z,20.27
2022-07-25T04:38:16.428Z,19.73
2022-07-25T04:40:19.571Z,19.47
2022-07-25T04:42:22.643Z,18.90
2022-07-25T04:44:25.736Z,19.50
2022-07-25T04:46:28.815Z,20.90
2022-07-25T04:48:31.871Z,18.63
2022-07-25T04:50:34.978Z,19.63
2022-07-25T04:52:38.002Z,19.60
2022-07-25T04:54:42.468Z,20.00
2022-07-25T04:56:45.584Z,19.03
2022-07-25T04:58:49.310Z,19.07
2022-07-25T05:00:52.659Z,18.47
2022-07-25T05:02:55.770Z,18.47
2022-07-25T05:04:58.835Z,19.73
2022-07-25T05:07:06.066Z,20.37
2022-07-25T05:09:09.149Z,19.47
2022-07-25T05:11:13.548Z,19.93
2022-07-25T05:13:16.668Z,18.50
2022-07-25T05:15:20.005Z,23.37
2022-07-25T05:17:23.011Z,19.00
2022-07-25T05:19:26.190Z,18.27
2022-07-25T05:21:29.317Z,19.10
2022-07-25T05:23:32.534Z,20.00
2022-07-25T05:25:35.644Z,18.20
2022-07-25T05:27:40.438Z,20.37
2022-07-25T05:29:43.496Z,20.23
2022-07-25T05:31:47.030Z,19.70
2022-07-25T05:33:50.221Z,20.10
2022-07-25T05:35:53.549Z,18.00
2022-07-25T05:37:56.623Z,19.00
2022-07-25T05:39:59.664Z,19.00
2022-07-25T05:42:02.764Z,19.70
2022-07-25T05:44:07.697Z,19.50
2022-07-25T05:46:11.056Z,19.03
2022-07-25T05:48:14.245Z,19.37
2022-07-25T05:50:17.378Z,19.30
2022-07-25T05:52:20.477Z,19.97
2022-07-25T05:54:24.402Z,20.00
2022-07-25T05:56:42.218Z,20.93
2022-07-25T05:58:46.128Z,18.77
2022-07-25T06:00:51.027Z,18.83
2022-07-25T06:02:54.446Z,19.07
2022-07-25T06:04:57.521Z,18.13
2022-07-25T06:07:00.623Z,18.53
2022-07-25T06:09:03.653Z,18.40
2022-07-25T06:11:11.278Z,17.70
2022-07-25T06:13:14.457Z,17.57
2022-07-25T06:15:22.536Z,18.73
2022-07-25T06:17:32.724Z,18.47
2022-07-25T06:19:35.981Z,19.07
2022-07-25T06:21:38.997Z,19.60
2022-07-25T06:23:42.032Z,18.10
2022-07-25T06:25:50.004Z,18.30
2022-07-25T06:27:53.630Z,18.70
2022-07-25T06:29:56.699Z,18.23
2022-07-25T06:31:59.765Z,18.00
2022-07-25T06:34:04.435Z,17.63
2022-07-25T06:36:08.482Z,18.03
2022-07-25T06:38:11.574Z,17.80
2022-07-25T06:40:14.718Z,18.07
2022-07-25T06:42:17.788Z,17.30
2022-07-25T06:44:20.844Z,16.87
2022-07-25T06:46:23.993Z,16.47
2022-07-25T06:48:27.183Z,18.50
2022-07-25T06:50:31.788Z,16.13
2022-07-25T06:52:35.115Z,16.20
2022-07-25T06:54:38.128Z,16.93
2022-07-25T06:56:41.153Z,15.37
2022-07-25T06:58:46.757Z,13.83
2022-07-25T07:00:50.279Z,14.97
2022-07-25T07:02:56.261Z,14.20
2022-07-25T07:05:01.042Z,14.00
2022-07-25T07:07:05.709Z,14.63
2022-07-25T07:09:08.777Z,14.73
2022-07-25T07:11:13.359Z,14.33
2022-07-25T07:13:23.703Z,13.47
2022-07-25T07:15:27.595Z,14.80
2022-07-25T07:17:30.735Z,14.23
2022-07-25T07:19:33.916Z,14.47
2022-07-25T07:21:36.997Z,14.30
2022-07-25T07:23:41.449Z,14.17
2022-07-25T07:25:45.795Z,13.67
2022-07-25T07:27:49.435Z,14.03
2022-07-25T07:29:52.497Z,14.27
2022-07-25T07:31:55.666Z,14.43
2022-07-25T07:33:59.323Z,13.60
2022-07-25T07:36:02.658Z,14.10
2022-07-25T07:38:05.755Z,14.57
2022-07-25T07:40:17.215Z,12.77
2022-07-25T07:42:21.198Z,13.90
2022-07-25T07:44:24.376Z,12.93
2022-07-25T07:46:27.629Z,13.43
2022-07-25T07:48:31.578Z,15.10
2022-07-25T07:50:34.910Z,15.00
2022-07-25T07:52:38.649Z,13.43
2022-07-25T07:54:59.636Z,13.07
2022-07-25T07:57:04.141Z,13.70
2022-07-25T07:59:07.714Z,15.07
2022-07-25T08:01:11.153Z,14.47
2022-07-25T08:03:14.836Z,13.50
2022-07-25T08:05:22.588Z,13.53
2022-07-25T08:07:25.775Z,13.20
2022-07-25T08:09:28.902Z,14.10
2022-07-25T08:11:32.083Z,14.27
2022-07-25T08:13:38.078Z,14.10
2022-07-25T08:15:41.463Z,13.50
2022-07-25T08:17:45.095Z,13.87
2022-07-25T08:19:48.198Z,14.10
2022-07-25T08:21:51.244Z,13.70
2022-07-25T08:23:54.296Z,14.67
2022-07-25T08:25:57.698Z,14.00
2022-07-25T08:28:00.792Z,14.33
2022-07-25T08:30:06.415Z,14.97
2022-07-25T08:32:09.588Z,12.87
2022-07-25T08:34:13.754Z,13.37
2022-07-25T08:36:16.917Z,14.60
2022-07-25T08:38:20.426Z,14.13
2022-07-25T08:40:26.063Z,14.80
2022-07-25T08:42:29.149Z,15.60
2022-07-25T08:44:37.518Z,14.57
2022-07-25T08:46:43.667Z,14.30
2022-07-25T08:48:46.855Z,13.80
2022-07-25T08:50:51.161Z,14.80
2022-07-25T08:53:10.051Z,14.67
2022-07-25T08:55:20.171Z,14.00
2022-07-25T08:57:23.332Z,13.73
2022-07-25T08:59:26.384Z,15.57
2022-07-25T09:01:34.753Z,13.80
2022-07-25T09:03:40.245Z,14.07
2022-07-25T09:05:43.832Z,15.40
2022-07-25T09:07:46.975Z,14.00
2022-07-25T09:09:50.045Z,13.03
2022-07-25T09:11:53.040Z,13.60
2022-07-25T09:14:00.739Z,14.00
2022-07-25T09:16:05.606Z,15.07
2022-07-25T09:18:13.103Z,14.00
2022-07-25T09:20:22.131Z,13.60
2022-07-25T09:22:25.304Z,13.10
2022-07-25T09:24:29.142Z,10.10
2022-07-25T09:26:32.244Z,13.83
2022-07-25T09:28:41.344Z,15.23
2022-07-25T09:30:55.524Z,12.87
2022-07-25T09:33:02.567Z,13.70
2022-07-25T09:35:06.450Z,13.83
2022-07-25T09:37:12.961Z,13.90
2022-07-25T09:39:16.108Z,14.50
2022-07-25T09:41:19.963Z,14.00
2022-07-25T09:43:23.582Z,14.00
2022-07-25T09:45:31.316Z,13.30
2022-07-25T09:47:36.867Z,14.37
2022-07-25T09:49:42.016Z,13.40
2022-07-25T09:51:45.582Z,13.00
2022-07-25T09:53:50.099Z,11.77
2022-07-25T09:55:55.134Z,12.77
2022-07-25T09:58:01.464Z,12.40
2022-07-25T10:00:06.400Z,12.37
2022-07-25T10:02:23.265Z,13.27
2022-07-25T10:04:37.436Z,12.50
2022-07-25T10:06:42.254Z,12.83
2022-07-25T10:08:45.776Z,13.17
2022-07-25T10:10:50.344Z,13.53
2022-07-25T10:13:07.843Z,13.37
2022-07-25T10:15:14.840Z,13.60
2022-07-25T10:17:22.347Z,12.67
2022-07-25T10:19:58.276Z,13.40
2022-07-25T10:22:01.915Z,13.20
2022-07-25T10:24:07.525Z,13.10
2022-07-25T10:26:14.006Z,11.97
2022-07-25T10:28:20.136Z,11.70
2022-07-25T10:30:24.309Z,12.10
2022-07-25T10:32:27.687Z,11.07
2022-07-25T10:34:31.966Z,11.53
2022-07-25T10:36:45.509Z,13.27
2022-07-25T10:38:51.578Z,11.17
2022-07-25T10:40:54.813Z,12.50
2022-07-25T10:43:02.725Z,11.70
2022-07-25T10:45:09.516Z,12.50
2022-07-25T10:47:13.853Z,12.03
2022-07-25T10:49:29.087Z,11.20
2022-07-25T10:51:41.327Z,12.30
2022-07-25T10:53:46.364Z,11.53
2022-07-25T10:56:05.682Z,11.17
2022-07-25T10:58:18.261Z,10.17
2022-07-25T11:00:22.022Z,12.70
2022-07-25T11:02:25.351Z,11.10
2022-07-25T11:04:29.545Z,10.50
2022-07-25T11:06:35.222Z,10.60
2022-07-25T11:08:38.421Z,11.07
2022-07-25T11:10:41.576Z,11.67
2022-07-25T11:12:45.800Z,11.43
2022-07-25T11:14:50.388Z,11.50
2022-07-25T11:16:57.013Z,10.83
2022-07-25T11:19:02.193Z,10.73
2022-07-25T11:21:07.431Z,10.73
2022-07-25T11:23:10.514Z,10.57
2022-07-25T11:25:14.746Z,11.60
2022-07-25T11:27:24.425Z,10.80
2022-07-25T11:29:28.097Z,10.17
2022-07-25T11:31:36.043Z,10.60
2022-07-25T11:33:39.535Z,10.23
2022-07-25T11:35:42.840Z,10.70
2022-07-25T11:37:48.938Z,10.97
2022-07-25T11:39:52.994Z,11.20
2022-07-25T11:42:06.746Z,9.43
2022-07-25T11:44:09.824Z,10.67
2022-07-25T11:46:13.059Z,11.13
2022-07-25T11:48:19.676Z,10.30
2022-07-25T11:50:30.304Z,9.70
2022-07-25T11:52:35.804Z,10.23
2022-07-25T11:54:38.961Z,11.00
2022-07-25T11:56:43.892Z,11.13
2022-07-25T11:58:57.846Z,10.07
2022-07-25T12:01:00.984Z,11.60
2022-07-25T12:03:08.583Z,10.53
2022-07-25T12:05:15.458Z,10.27
2022-07-25T12:07:18.598Z,10.13
2022-07-25T12:09:23.128Z,10.67
2022-07-25T12:11:26.229Z,10.13
2022-07-25T12:13:30.489Z,9.70
2022-07-25T12:15:36.436Z,9.83
2022-07-25T12:17:39.665Z,10.13
2022-07-25T12:19:47.014Z,8.93
2022-07-25T12:21:51.636Z,10.77
2022-07-25T12:23:54.849Z,10.40
2022-07-25T12:25:58.034Z,9.70
2022-07-25T12:28:01.683Z,10.50
2022-07-25T12:30:05.663Z,9.40
2022-07-25T12:32:08.905Z,9.77
2022-07-25T12:34:12.016Z,10.53
2022-07-25T12:36:15.104Z,11.17
2022-07-25T12:38:19.736Z,9.60
2022-07-25T12:40:22.856Z,10.47
2022-07-25T12:42:27.134Z,10.80
2022-07-25T12:44:30.118Z,10.00
2022-07-25T12:46:33.352Z,9.20
2022-07-25T12:48:37.642Z,10.00
2022-07-25T12:50:40.742Z,9.60
2022-07-25T12:52:44.592Z,9.43
2022-07-25T12:54:49.796Z,9.83
2022-07-25T12:56:53.191Z,9.80
2022-07-25T12:58:56.303Z,9.00
2022-07-25T13:01:01.282Z,9.53
2022-07-25T13:03:06.660Z,9.80
2022-07-25T13:05:12.946Z,9.20
2022-07-25T13:07:16.652Z,9.00
2022-07-25T13:09:19.758Z,8.80
2022-07-25T13:11:24.276Z,9.10
2022-07-25T13:13:27.536Z,9.83
2022-07-25T13:15:30.787Z,9.67
2022-07-25T13:17:33.955Z,9.87
2022-07-25T13:19:37.115Z,9.20
2022-07-25T13:21:40.429Z,9.50
2022-07-25T13:23:43.841Z,9.10
2022-07-25T13:25:47.174Z,9.20
2022-07-25T13:27:51.639Z,9.50
2022-07-25T13:29:55.192Z,9.20
2022-07-25T13:31:58.267Z,9.73
2022-07-25T13:34:01.419Z,9.50
2022-07-25T13:36:05.045Z,9.50
2022-07-25T13:38:10.888Z,10.07
2022-07-25T13:40:14.352Z,9.87
2022-07-25T13:42:17.492Z,9.57
2022-07-25T13:44:22.550Z,9.47
2022-07-25T13:46:25.857Z,10.73
2022-07-25T13:48:31.462Z,9.80
2022-07-25T13:50:35.084Z,10.80
2022-07-25T13:52:38.784Z,9.60
2022-07-25T13:54:42.026Z,10.20
2022-07-25T13:56:45.107Z,10.47
2022-07-25T13:58:48.266Z,10.53
2022-07-25T14:00:53.089Z,9.80
2022-07-25T14:02:56.277Z,10.57
2022-07-25T14:05:03.783Z,10.23
2022-07-25T14:07:07.469Z,10.50
2022-07-25T14:09:10.903Z,10.33
2022-07-25T14:11:14.487Z,10.70
2022-07-25T14:13:17.564Z,11.10
2022-07-25T14:15:20.975Z,10.93
2022-07-25T14:17:30.032Z,11.27
2022-07-25T14:19:33.590Z,13.77
2022-07-25T14:21:36.974Z,10.17
2022-07-25T14:23:40.045Z,10.63
2022-07-25T14:25:43.427Z,14.10
2022-07-25T14:27:46.502Z,11.27
2022-07-25T14:29:49.601Z,11.27
2022-07-25T14:31:52.773Z,12.40
2022-07-25T14:33:58.069Z,12.33
2022-07-25T14:36:01.136Z,11.93
2022-07-25T14:38:06.089Z,11.20
2022-07-25T14:40:11.992Z,11.70
2022-07-25T14:42:15.181Z,11.13
2022-07-25T14:44:19.356Z,12.00
2022-07-25T14:46:22.496Z,14.30
2022-07-25T14:48:25.714Z,11.63
2022-07-25T14:50:30.190Z,11.30
2022-07-25T14:52:33.361Z,13.60
2022-07-25T14:54:36.477Z,13.93
2022-07-25T14:56:40.103Z,15.40
2022-07-25T14:58:43.235Z,12.47
2022-07-25T15:00:47.533Z,11.50
2022-07-25T15:02:50.856Z,11.77
2022-07-25T15:04:54.073Z,11.90
2022-07-25T15:06:58.675Z,11.43
2022-07-25T15:09:01.764Z,11.63
2022-07-25T15:11:04.845Z,13.20
2022-07-25T15:13:29.948Z,11.87
2022-07-25T15:15:31.051Z,11.23
2022-07-25T15:17:34.355Z,11.80
2022-07-25T15:19:37.461Z,11.73
2022-07-25T15:21:40.604Z,11.80
2022-07-25T15:23:45.079Z,11.23
2022-07-25T15:26:04.323Z,12.43
2022-07-25T15:28:08.488Z,11.93
2022-07-25T15:30:12.326Z,12.53
2022-07-25T15:32:15.385Z,12.07
2022-07-25T15:34:18.724Z,11.97
2022-07-25T15:36:24.556Z,11.67
2022-07-25T15:38:32.049Z,12.47
2022-07-25T15:40:36.779Z,12.90
2022-07-25T15:42:40.377Z,11.77
2022-07-25T15:44:43.563Z,11.63
2022-07-25T15:46:47.175Z,11.70
2022-07-25T15:48:50.409Z,11.90
2022-07-25T15:50:54.722Z,12.17
2022-07-25T15:52:57.824Z,11.90
2022-07-25T15:55:00.955Z,11.50
2022-07-25T15:57:07.092Z,12.37
2022-07-25T15:59:10.701Z,11.97
2022-07-25T16:01:13.989Z,12.40
2022-07-25T16:03:17.207Z,12.50
2022-07-25T16:05:20.368Z,12.90
2022-07-25T16:07:23.585Z,12.73
2022-07-25T16:09:26.693Z,13.10
2022-07-25T16:11:29.888Z,13.67
2022-07-25T16:13:34.416Z,13.57
2022-07-25T16:15:37.503Z,13.30
2022-07-25T16:17:40.823Z,12.07
2022-07-25T16:19:43.941Z,12.03
2022-07-25T16:21:47.969Z,13.07
2022-07-25T16:23:51.074Z,12.30
2022-07-25T16:25:54.290Z,12.47
2022-07-25T16:27:58.442Z,12.23
2022-07-25T16:30:03.209Z,12.50
2022-07-25T16:32:07.470Z,11.87
2022-07-25T16:34:11.183Z,12.50
2022-07-25T16:36:14.343Z,11.60
2022-07-25T16:38:18.068Z,11.33
2022-07-25T16:40:22.330Z,12.40
2022-07-25T16:42:27.996Z,11.90
2022-07-25T16:44:31.220Z,11.50
2022-07-25T16:46:35.944Z,12.27
2022-07-25T16:48:39.277Z,11.33
2022-07-25T16:50:42.350Z,10.60
2022-07-25T16:52:45.850Z,11.10
2022-07-25T16:54:48.967Z,10.47
2022-07-25T16:56:55.575Z,10.20
2022-07-25T16:59:00.856Z,9.73
2022-07-25T17:01:03.962Z,10.30
2022-07-25T17:03:08.460Z,10.30
2022-07-25T17:05:11.808Z,11.80
2022-07-25T17:07:15.027Z,10.27
2022-07-25T17:09:18.275Z,10.80
2022-07-25T17:11:21.569Z,10.53
2022-07-25T17:13:24.840Z,10.90
2022-07-25T17:15:28.062Z,9.90
2022-07-25T17:17:31.738Z,9.20
2022-07-25T17:19:39.664Z,9.27
2022-07-25T17:21:42.898Z,9.77
2022-07-25T17:23:47.102Z,9.00
2022-07-25T17:25:50.845Z,9.10
2022-07-25T17:27:54.061Z,8.70
2022-07-25T17:29:57.223Z,9.03
2022-07-25T17:32:00.398Z,9.63
2022-07-25T17:34:03.627Z,11.47
2022-07-25T17:36:08.756Z,9.97
2022-07-25T17:38:12.734Z,9.30
2022-07-25T17:40:17.914Z,9.20
2022-07-25T17:42:22.271Z,9.90
2022-07-25T17:44:25.771Z,9.57
2022-07-25T17:46:29.150Z,14.43
2022-07-25T17:48:32.354Z,9.43
2022-07-25T17:50:35.521Z,10.33
2022-07-25T17:52:40.049Z,10.20
2022-07-25T17:54:43.375Z,12.00
2022-07-25T17:56:46.818Z,10.80
2022-07-25T17:58:49.886Z,13.03
2022-07-25T18:00:56.849Z,9.80
2022-07-25T18:03:02.763Z,9.93
2022-07-25T18:05:06.948Z,10.13
2022-07-25T18:07:10.131Z,10.93
2022-07-25T18:09:14.577Z,9.20
2022-07-25T18:11:17.909Z,9.37
2022-07-25T18:13:21.986Z,10.20
2022-07-25T18:15:25.435Z,8.73
2022-07-25T18:17:28.532Z,10.00
2022-07-25T18:19:31.695Z,9.17
2022-07-25T18:21:34.932Z,9.03
2022-07-25T18:23:38.028Z,9.20
2022-07-25T18:25:42.523Z,9.33
2022-07-25T18:27:47.040Z,11.30
2022-07-25T18:29:50.250Z,10.13
2022-07-25T18:31:53.484Z,9.30
2022-07-25T18:33:57.079Z,9.00
2022-07-25T18:36:04.088Z,9.00
2022-07-25T18:38:11.538Z,13.47
2022-07-25T18:40:14.889Z,10.13
2022-07-25T18:42:19.548Z,12.87
2022-07-25T18:44:22.730Z,10.10
2022-07-25T18:46:26.024Z,9.10
2022-07-25T18:48:29.190Z,10.40
2022-07-25T18:50:32.445Z,9.67
2022-07-25T18:52:36.287Z,9.80
2022-07-25T18:54:39.479Z,9.00
2022-07-25T18:56:44.002Z,8.30
2022-07-25T18:58:48.484Z,8.20
2022-07-25T19:00:51.625Z,8.40
2022-07-25T19:02:54.910Z,10.40
2022-07-25T19:04:58.109Z,9.10
2022-07-25T19:07:01.412Z,7.83
2022-07-25T19:09:04.760Z,10.53
2022-07-25T19:11:08.540Z,8.00
2022-07-25T19:13:26.835Z,8.53
2022-07-25T19:15:36.599Z,8.27
2022-07-25T19:17:39.905Z,11.77
2022-07-25T19:19:43.907Z,8.10
2022-07-25T19:21:47.101Z,7.67
2022-07-25T19:23:51.362Z,15.47
2022-07-25T19:25:55.225Z,6.67
2022-07-25T19:27:58.337Z,10.70
2022-07-25T19:30:01.602Z,7.80
2022-07-25T19:32:07.176Z,6.77
2022-07-25T19:34:11.051Z,6.43
2022-07-25T19:36:14.788Z,6.60
2022-07-25T19:38:17.913Z,8.00
2022-07-25T19:40:21.066Z,6.70
2022-07-25T19:42:24.189Z,11.33
2022-07-25T19:44:27.276Z,8.87
2022-07-25T19:46:33.530Z,6.27
2022-07-25T19:48:38.242Z,6.87
2022-07-25T19:50:41.807Z,6.07
2022-07-25T19:52:45.211Z,5.70
2022-07-25T19:54:48.394Z,7.23
2022-07-25T19:56:51.559Z,8.97
2022-07-25T19:58:54.777Z,9.97
2022-07-25T20:00:57.958Z,7.20
2022-07-25T20:03:01.478Z,8.40
2022-07-25T20:05:06.402Z,6.97
2022-07-25T20:07:09.479Z,7.37
2022-07-25T20:09:12.606Z,7.53
2022-07-25T20:11:16.799Z,5.50
2022-07-25T20:13:19.861Z,9.77
2022-07-25T20:15:23.104Z,5.83
2022-07-25T20:17:26.714Z,4.93
2022-07-25T20:19:29.960Z,9.37
2022-07-25T20:21:34.550Z,7.17
2022-07-25T20:23:38.164Z,7.53
2022-07-25T20:25:41.243Z,5.83
2022-07-25T20:27:44.358Z,6.27
2022-07-25T20:29:47.431Z,6.73
2022-07-25T20:31:52.636Z,6.70
2022-07-25T20:33:56.076Z,5.70
2022-07-25T20:35:59.842Z,5.63
2022-07-25T20:38:09.490Z,7.90
2022-07-25T20:40:13.671Z,5.10
2022-07-25T20:42:16.866Z,10.00
2022-07-25T20:44:20.020Z,5.50
2022-07-25T20:46:23.497Z,5.10
2022-07-25T20:48:27.123Z,4.53
2022-07-25T20:50:30.274Z,6.30
2022-07-25T20:52:33.678Z,4.67
2022-07-25T20:54:39.185Z,4.90
2022-07-25T20:56:42.258Z,8.17
2022-07-25T20:58:45.329Z,4.47
2022-07-25T21:00:48.366Z,6.20
2022-07-25T21:02:51.798Z,7.83
2022-07-25T21:04:54.993Z,5.97
2022-07-25T21:06:58.067Z,4.03
2022-07-25T21:09:01.237Z,7.77
2022-07-25T21:11:06.218Z,6.13
2022-07-25T21:13:09.266Z,7.33
2022-07-25T21:15:12.931Z,11.30
2022-07-25T21:17:15.997Z,9.53
2022-07-25T21:19:19.033Z,7.30
2022-07-25T21:21:22.133Z,8.07
2022-07-25T21:23:26.373Z,5.90
2022-07-25T21:25:29.418Z,6.07
2022-07-25T21:27:33.859Z,5.73
2022-07-25T21:29:37.098Z,5.33
2022-07-25T21:31:40.241Z,7.70
2022-07-25T21:33:43.310Z,4.80
2022-07-25T21:35:50.458Z,5.63
2022-07-25T21:37:56.154Z,4.23
2022-07-25T21:39:59.181Z,5.00
2022-07-25T21:42:02.253Z,4.67
2022-07-25T21:44:08.654Z,5.73
2022-07-25T21:46:11.853Z,4.47
2022-07-25T21:48:15.109Z,8.70
2022-07-25T21:50:35.716Z,7.30
2022-07-25T21:52:45.271Z,5.87
2022-07-25T21:54:48.580Z,6.40
2022-07-25T21:56:52.559Z,5.70
2022-07-25T21:58:55.768Z,5.70
2022-07-25T22:01:00.407Z,3.70
2022-07-25T22:03:03.475Z,6.97
2022-07-25T22:05:07.323Z,4.53
2022-07-25T22:07:10.408Z,4.27
2022-07-25T22:09:13.675Z,5.57
2022-07-25T22:11:39.093Z,4.17
2022-07-25T22:13:43.032Z,4.70
2022-07-25T22:15:46.248Z,3.97
2022-07-25T22:17:50.653Z,4.63
2022-07-25T22:19:53.710Z,4.60
2022-07-25T22:21:56.808Z,3.90
2022-07-25T22:23:59.846Z,7.13
2022-07-25T22:26:03.131Z,4.70
2022-07-25T22:28:06.584Z,4.87
2022-07-25T22:30:18.705Z,4.97
2022-07-25T22:32:22.438Z,3.73
2022-07-25T22:34:27.008Z,4.00
2022-07-25T22:36:30.006Z,4.93
2022-07-25T22:38:33.088Z,5.67
2022-07-25T22:40:36.146Z,4.83
2022-07-25T22:42:39.248Z,4.90
2022-07-25T22:44:42.332Z,3.90
2022-07-25T22:46:46.127Z,4.23
2022-07-25T22:48:49.224Z,4.30
2022-07-25T22:50:53.737Z,3.60
2022-07-25T22:52:56.747Z,3.53
2022-07-25T22:54:59.746Z,12.97
2022-07-25T22:57:02.964Z,4.73
2022-07-25T22:59:06.250Z,3.97
2022-07-25T23:01:10.150Z,7.03
2022-07-25T23:03:13.248Z,3.70
2022-07-25T23:05:16.300Z,6.83
2022-07-25T23:07:20.778Z,3.83
2022-07-25T23:09:24.349Z,5.07
2022-07-25T23:11:39.377Z,4.43
2022-07-25T23:13:42.366Z,3.30
2022-07-25T23:15:51.121Z,3.60
2022-07-25T23:17:54.380Z,4.60
2022-07-25T23:19:57.589Z,5.83
2022-07-25T23:22:00.641Z,5.07
2022-07-25T23:24:05.597Z,4.83
2022-07-25T23:26:08.669Z,5.30
2022-07-25T23:28:11.678Z,3.20
2022-07-25T23:30:16.513Z,5.83
2022-07-25T23:32:19.935Z,3.40
2022-07-25T23:34:23.021Z,3.47
2022-07-25T23:36:26.085Z,3.70
2022-07-25T23:38:29.158Z,7.10
2022-07-25T23:40:33.498Z,3.63
2022-07-25T23:42:36.515Z,4.83
2022-07-25T23:44:42.049Z,3.10
2022-07-25T23:46:47.583Z,4.10
2022-07-25T23:48:50.604Z,5.00
2022-07-25T23:50:53.684Z,7.50
2022-07-25T23:52:56.725Z,4.07
2022-07-25T23:54:59.722Z,4.67
2022-07-25T23:57:04.292Z,5.63
2022-07-25T23:59:07.643Z,4.23
